Robert G. Stone, Jr. — WDD4596 — position and weather

sailwx.info

Track history (hours):
 
Tides and Currents Weather Stations Pressure Air Temp Water Temp Dewpoint Dewpoint Depression Visibility Wind Speed Wind Dir Waves Ship Positions

Robert G. Stone, Jr.

Owner: Kirby Inland Marine, LP, Houston, TX. More information available from US FCC via Universal Licensing System and Coast Guard Vessel Documentation Center.

Last reported at 2016-May-26 21:33 UTC. Time now 2016-May-30 18:26 UTC.
Position N 30°00' W 089°57'.

Length 27 m; draft 3.1 m.

Type: . MMSI: 367146780.

Date/timePositionNaut miles runAvg speedWind from/ knotsBaromVisibWave heightAir tempDewpointWater temp
2016-May-26 21:33N 30°00' W 089°57'3 2.9
2016-May-26 20:33N 29°60' W 090°00'2 2.1
2016-May-26 19:33N 29°58' W 090°02'0 0.4
2016-May-26 18:33N 29°58' W 090°02'0 0.4
2016-May-26 17:33N 29°57' W 090°02'3 2.9
2016-May-26 16:33N 29°56' W 089°59'0 0.0
2016-May-26 15:33N 29°56' W 089°59'0 0.0
2016-May-26 14:33N 29°56' W 089°59'0 0.0
2016-May-26 13:33N 29°56' W 089°59'0 0.0
2016-May-26 12:33N 29°56' W 089°59'0 0.0
2016-May-26 11:33N 29°56' W 089°59'0 0.0
2016-May-26 10:33N 29°56' W 089°59'0 0.0
2016-May-26 09:33N 29°56' W 089°59'0 0.0
2016-May-26 08:33N 29°56' W 089°59'0 0.0
2016-May-26 07:33N 29°56' W 089°59'0 0.0
2016-May-26 06:33N 29°56' W 089°59'0 0.0
2016-May-26 05:33N 29°56' W 089°59'0 0.0
2016-May-26 04:33N 29°56' W 089°59'1 0.9
2016-May-26 03:33N 29°55' W 089°58'1 0.5
2016-May-26 02:33N 29°55' W 089°59'0 0.1
2016-May-26 01:33N 29°54' W 089°59'0 0.0
2016-May-26 00:33N 29°54' W 089°59'0 0.0
2016-May-25 23:34N 29°54' W 089°59'0 0.0
2016-May-25 22:33N 29°54' W 089°59'0 0.0
2016-May-25 21:33N 29°54' W 089°59'0 0.0
2016-May-25 20:33N 29°54' W 089°59'0 0.0
2016-May-25 19:33N 29°54' W 089°59'3 2.5
2016-May-25 18:33N 29°52' W 090°01'4 3.5
2016-May-25 17:33N 29°50' W 090°03'6 3.0
2016-May-25 15:32N 29°45' W 090°08'21 4.3
2016-May-25 10:33N 29°33' W 090°28'5 5.1
2016-May-25 09:33N 29°34' W 090°34'5 4.8
2016-May-25 08:33N 29°36' W 090°40'3 2.9
2016-May-25 07:33N 29°35' W 090°43'3 3.4
2016-May-25 06:33N 29°33' W 090°45'3 2.9
2016-May-25 05:33N 29°32' W 090°49'6 5.4
2016-May-25 04:31N 29°33' W 090°55'106 3.7
2016-May-24 00:05N 29°57' W 092°54'3 5.3
2016-May-23 23:32N 29°56' W 092°57'5 5.0
2016-May-23 22:32N 29°56' W 093°03'5 4.7
2016-May-23 21:33N 29°56' W 093°08'5 5.1
2016-May-23 20:33N 29°59' W 093°13'5 4.7
2016-May-23 19:33N 30°03' W 093°16'3 3.1
2016-May-23 18:33N 30°06' W 093°18'0 0.4
2016-May-23 17:33N 30°06' W 093°18'1 1.0
2016-May-23 16:33N 30°06' W 093°19'4 3.6
2016-May-23 15:33N 30°04' W 093°23'6 6.2
2016-May-23 14:33N 30°04' W 093°30'7 6.5
2016-May-23 13:33N 30°04' W 093°37'7 6.8
2016-May-23 12:33N 30°01' W 093°45'8 7.6
2016-May-23 11:33N 29°57' W 093°52'11 7.8
2016-May-23 10:12N 29°49' W 093°60'15 5.3
2016-May-23 07:18N 29°40' W 094°14'7 3.9
2016-May-23 05:24N 29°36' W 094°22'3 3.4
2016-May-23 04:25N 29°34' W 094°25'25 0.5
2016-May-21 04:14N 29°21' W 094°49'60 5.1
2016-May-20 16:30N 29°55' W 093°53'7 7.0
2016-May-20 15:31N 29°60' W 093°47'6 6.3
2016-May-20 14:33N 30°04' W 093°41'5 5.2
2016-May-20 13:33N 30°04' W 093°35'0 0.0
2016-May-20 12:33N 30°04' W 093°35'0 0.1
2016-May-20 11:33N 30°04' W 093°35'0 0.0
2016-May-20 10:33N 30°04' W 093°35'2 1.6
2016-May-20 09:33N 30°04' W 093°33'0 0.1
2016-May-20 08:33N 30°04' W 093°33'0 0.0
2016-May-20 07:33N 30°04' W 093°33'2 2.4
2016-May-20 06:33N 30°04' W 093°30'6 6.4
2016-May-20 05:33N 30°04' W 093°23'3 3.4
2016-May-20 04:33N 30°05' W 093°20'4 4.0
2016-May-20 03:33N 30°03' W 093°16'6 5.9
2016-May-20 02:33N 29°58' W 093°12'6 6.1
2016-May-20 01:33N 29°56' W 093°05'7 6.6
2016-May-20 00:33N 29°56' W 092°58'  
2016-May-17 17:31N 32°01' W 091°05'7 7.5
2016-May-17 16:33N 32°08' W 091°04'9 9.4
2016-May-17 15:33N 32°16' W 090°58'6 5.8
2016-May-17 14:33N 32°21' W 090°60'9 9.5
2016-May-17 13:33N 32°29' W 091°07'  
Track history (hours):
 
Tides and Currents Weather Stations Pressure Air Temp Water Temp Dewpoint Dewpoint Depression Visibility Wind Speed Wind Dir Waves Ship Positions

Robert G. Stone, Jr.

Owner: Kirby Inland Marine, LP, Houston, TX. More information available from US FCC via Universal Licensing System and Coast Guard Vessel Documentation Center.

Last reported at 2016-May-26 21:33 UTC. Time now 2016-May-30 18:26 UTC.
Position N 30°00' W 089°57'.

Length 27 m; draft 3.1 m.

Type: . MMSI: 367146780.

Date/timePositionNaut miles runAvg speedWind from/ knotsBaromVisibWave heightAir tempDewpointWater temp
2016-May-26 21:33N 30°00' W 089°57'3 2.9
2016-May-26 20:33N 29°60' W 090°00'2 2.1
2016-May-26 19:33N 29°58' W 090°02'0 0.4
2016-May-26 18:33N 29°58' W 090°02'0 0.4
2016-May-26 17:33N 29°57' W 090°02'3 2.9
2016-May-26 16:33N 29°56' W 089°59'0 0.0
2016-May-26 15:33N 29°56' W 089°59'0 0.0
2016-May-26 14:33N 29°56' W 089°59'0 0.0
2016-May-26 13:33N 29°56' W 089°59'0 0.0
2016-May-26 12:33N 29°56' W 089°59'0 0.0
2016-May-26 11:33N 29°56' W 089°59'0 0.0
2016-May-26 10:33N 29°56' W 089°59'0 0.0
2016-May-26 09:33N 29°56' W 089°59'0 0.0
2016-May-26 08:33N 29°56' W 089°59'0 0.0
2016-May-26 07:33N 29°56' W 089°59'0 0.0
2016-May-26 06:33N 29°56' W 089°59'0 0.0
2016-May-26 05:33N 29°56' W 089°59'0 0.0
2016-May-26 04:33N 29°56' W 089°59'1 0.9
2016-May-26 03:33N 29°55' W 089°58'1 0.5
2016-May-26 02:33N 29°55' W 089°59'0 0.1
2016-May-26 01:33N 29°54' W 089°59'0 0.0
2016-May-26 00:33N 29°54' W 089°59'0 0.0
2016-May-25 23:34N 29°54' W 089°59'0 0.0
2016-May-25 22:33N 29°54' W 089°59'0 0.0
2016-May-25 21:33N 29°54' W 089°59'0 0.0
2016-May-25 20:33N 29°54' W 089°59'0 0.0
2016-May-25 19:33N 29°54' W 089°59'3 2.5
2016-May-25 18:33N 29°52' W 090°01'4 3.5
2016-May-25 17:33N 29°50' W 090°03'6 3.0
2016-May-25 15:32N 29°45' W 090°08'21 4.3
2016-May-25 10:33N 29°33' W 090°28'5 5.1
2016-May-25 09:33N 29°34' W 090°34'5 4.8
2016-May-25 08:33N 29°36' W 090°40'3 2.9
2016-May-25 07:33N 29°35' W 090°43'3 3.4
2016-May-25 06:33N 29°33' W 090°45'3 2.9
2016-May-25 05:33N 29°32' W 090°49'6 5.4
2016-May-25 04:31N 29°33' W 090°55'106 3.7
2016-May-24 00:05N 29°57' W 092°54'3 5.3
2016-May-23 23:32N 29°56' W 092°57'5 5.0
2016-May-23 22:32N 29°56' W 093°03'5 4.7
2016-May-23 21:33N 29°56' W 093°08'5 5.1
2016-May-23 20:33N 29°59' W 093°13'5 4.7
2016-May-23 19:33N 30°03' W 093°16'3 3.1
2016-May-23 18:33N 30°06' W 093°18'0 0.4
2016-May-23 17:33N 30°06' W 093°18'1 1.0
2016-May-23 16:33N 30°06' W 093°19'4 3.6
2016-May-23 15:33N 30°04' W 093°23'6 6.2
2016-May-23 14:33N 30°04' W 093°30'7 6.5
2016-May-23 13:33N 30°04' W 093°37'7 6.8
2016-May-23 12:33N 30°01' W 093°45'8 7.6
2016-May-23 11:33N 29°57' W 093°52'11 7.8
2016-May-23 10:12N 29°49' W 093°60'15 5.3
2016-May-23 07:18N 29°40' W 094°14'7 3.9
2016-May-23 05:24N 29°36' W 094°22'3 3.4
2016-May-23 04:25N 29°34' W 094°25'25 0.5
2016-May-21 04:14N 29°21' W 094°49'60 5.1
2016-May-20 16:30N 29°55' W 093°53'7 7.0
2016-May-20 15:31N 29°60' W 093°47'6 6.3
2016-May-20 14:33N 30°04' W 093°41'5 5.2
2016-May-20 13:33N 30°04' W 093°35'0 0.0
2016-May-20 12:33N 30°04' W 093°35'0 0.1
2016-May-20 11:33N 30°04' W 093°35'0 0.0
2016-May-20 10:33N 30°04' W 093°35'2 1.6
2016-May-20 09:33N 30°04' W 093°33'0 0.1
2016-May-20 08:33N 30°04' W 093°33'0 0.0
2016-May-20 07:33N 30°04' W 093°33'2 2.4
2016-May-20 06:33N 30°04' W 093°30'6 6.4
2016-May-20 05:33N 30°04' W 093°23'3 3.4
2016-May-20 04:33N 30°05' W 093°20'4 4.0
2016-May-20 03:33N 30°03' W 093°16'6 5.9
2016-May-20 02:33N 29°58' W 093°12'6 6.1
2016-May-20 01:33N 29°56' W 093°05'7 6.6
2016-May-20 00:33N 29°56' W 092°58'  
2016-May-17 17:31N 32°01' W 091°05'7 7.5
2016-May-17 16:33N 32°08' W 091°04'9 9.4
2016-May-17 15:33N 32°16' W 090°58'6 5.8
2016-May-17 14:33N 32°21' W 090°60'9 9.5
2016-May-17 13:33N 32°29' W 091°07'  

Dump ship's entire track history